Time;durP1;ratioP1;P1;durP2;ratioP2;P2;SDS_P1;SDS_P2;PMS_P1;PMS_P2;Temp;Humidity;BMP_temperature;BMP_pressure;BME280_temperature;BME280_humidity;BME280_pressure;Samples;Min_cycle;Max_cycle;Signal;HPM_P1;HPM_P2
2022/02/04 00:22:36;;;;;;;38.85;26.90;;;7.20;99.90;;;;;;4954135;28;20043;-62
2022/02/04 00:24:53;;;;;;;41.58;27.05;;;7.10;99.90;;;;;;4947277;28;20457;-53
2022/02/04 00:27:23;;;;;;;39.72;28.25;;;7.10;99.90;;;;;;4952936;28;20050;-53
2022/02/04 00:30:06;;;;;;;37.50;27.50;;;7.10;99.90;;;;;;4963347;28;20520;-52
2022/02/04 00:32:34;;;;;;;43.15;27.58;;;7.10;99.90;;;;;;5053799;28;20051;-62
2022/02/04 00:35:33;;;;;;;43.60;28.48;;;7.10;99.90;;;;;;4956802;28;20525;-63
2022/02/04 00:38:00;;;;;;;41.38;29.00;;;7.10;99.90;;;;;;4944525;28;20055;-54
2022/02/04 00:40:30;;;;;;;39.28;28.05;;;7.10;99.90;;;;;;4943950;28;20112;-62
2022/02/04 00:43:00;;;;;;;40.22;28.13;;;7.10;99.90;;;;;;4957349;28;20050;-53
2022/02/04 00:45:37;;;;;;;39.22;28.33;;;7.10;99.90;;;;;;4964868;28;20427;-62
2022/02/04 00:48:36;;;;;;;40.00;28.10;;;7.10;99.90;;;;;;4948587;28;20492;-53
2022/02/04 00:51:18;;;;;;;37.22;26.75;;;7.10;99.90;;;;;;4951058;28;20051;-53
2022/02/04 01:26:08;;;;;;;34.33;23.95;;;6.60;99.90;;;;;;4976745;28;20060;-62
2022/02/04 01:28:38;;;;;;;39.13;25.65;;;6.60;99.90;;;;;;4957137;28;20055;-63
2022/02/04 01:31:05;;;;;;;36.05;25.10;;;6.60;99.90;;;;;;4952588;28;20043;-63
2022/02/04 01:33:32;;;;;;;40.05;26.05;;;6.50;99.90;;;;;;4963208;28;20078;-63
2022/02/04 01:35:59;;;;;;;38.58;25.15;;;6.60;99.90;;;;;;4967611;28;20050;-63
2022/02/04 01:38:27;;;;;;;37.42;25.60;;;6.60;99.90;;;;;;4958833;28;20082;-63
2022/02/04 01:40:55;;;;;;;37.30;25.25;;;6.70;99.90;;;;;;4928198;29;20521;-63
2022/02/04 01:43:22;;;;;;;38.03;25.33;;;6.70;99.90;;;;;;4960457;28;20065;-63
2022/02/04 01:45:59;;;;;;;36.65;24.10;;;6.70;99.90;;;;;;4994675;28;20550;-63
2022/02/04 01:48:25;;;;;;;35.83;24.17;;;6.80;99.90;;;;;;4969406;28;20058;-63
2022/02/04 01:50:52;;;;;;;35.83;24.92;;;6.70;99.90;;;;;;4947325;28;20816;-62
2022/02/04 01:53:21;;;;;;;35.35;24.27;;;6.70;99.90;;;;;;4970379;28;20094;-53
2022/02/04 01:55:48;;;;;;;36.67;26.17;;;6.60;99.90;;;;;;4974391;28;20617;-53
2022/02/04 01:58:15;;;;;;;38.47;25.65;;;6.70;99.90;;;;;;4958692;28;20720;-53
2022/02/04 02:00:41;;;;;;;36.75;25.35;;;6.70;99.90;;;;;;4960480;28;20116;-51
2022/02/04 02:03:08;;;;;;;35.97;25.52;;;6.70;99.90;;;;;;4959821;28;20054;-53
2022/02/04 02:05:35;;;;;;;39.17;25.90;;;6.70;99.90;;;;;;4945249;28;20399;-63
2022/02/04 02:08:10;;;;;;;40.30;27.60;;;6.80;99.90;;;;;;4990303;28;20156;-63
2022/02/04 02:10:36;;;;;;;39.65;26.70;;;6.80;99.90;;;;;;4957414;28;20137;-62
2022/02/04 03:01:19;;;;;;;50.17;32.50;;;7.00;99.90;;;;;;5013420;28;20099;-54
2022/02/04 03:03:51;;;;;;;46.45;30.48;;;7.00;99.90;;;;;;4970895;28;20054;-53
2022/02/04 03:06:18;;;;;;;50.55;33.22;;;7.00;99.90;;;;;;4960381;28;20050;-52
2022/02/04 03:08:44;;;;;;;49.38;31.90;;;7.00;99.90;;;;;;4944163;28;20078;-53
2022/02/04 03:11:10;;;;;;;46.65;32.17;;;7.10;99.90;;;;;;4978195;28;20120;-51
2022/02/04 03:13:36;;;;;;;41.35;29.77;;;7.10;99.90;;;;;;4942209;29;20557;-54
2022/02/04 03:16:09;;;;;;;40.00;29.30;;;7.20;99.90;;;;;;4909507;28;20138;-63
2022/02/04 03:18:39;;;;;;;43.83;30.63;;;7.30;99.90;;;;;;4943042;29;20477;-63
2022/02/04 03:23:39;;;;;;;;;;;7.30;99.90;;;;;;4927193;28;20193;-53
2022/02/04 03:27:09;;;;;;;42.58;28.90;;;7.40;99.90;;;;;;4956810;28;19929;-53
2022/02/04 03:29:01;;;;;;;38.22;29.02;;;7.40;99.90;;;;;;4948630;28;20050;-54
2022/02/04 03:31:31;;;;;;;38.95;30.63;;;7.40;99.90;;;;;;4975990;28;20047;-52
2022/02/04 03:33:58;;;;;;;44.33;30.85;;;7.50;99.90;;;;;;4969129;28;20110;-52
2022/02/04 03:36:24;;;;;;;39.65;32.65;;;7.40;99.90;;;;;;4960011;28;20049;-54
2022/02/04 03:38:50;;;;;;;42.55;31.98;;;7.40;99.90;;;;;;4961759;28;20088;-51
2022/02/04 03:41:16;;;;;;;44.97;32.53;;;7.40;99.90;;;;;;4962598;28;20544;-52
2022/02/04 03:43:42;;;;;;;42.10;32.75;;;7.40;99.90;;;;;;5045280;28;20079;-54
2022/02/04 03:46:08;;;;;;;43.22;34.65;;;7.40;99.90;;;;;;5031577;28;20457;-53
2022/02/04 03:48:35;;;;;;;43.17;32.45;;;7.40;99.90;;;;;;4972085;28;20051;-53
2022/02/04 03:51:01;;;;;;;41.38;32.97;;;7.30;99.90;;;;;;4949682;28;20077;-53
2022/02/04 03:53:27;;;;;;;48.58;34.22;;;7.30;99.90;;;;;;4986675;28;20051;-63
2022/02/04 03:55:53;;;;;;;42.92;31.33;;;7.30;99.90;;;;;;4976496;28;20082;-53
2022/02/04 03:58:20;;;;;;;47.88;34.33;;;7.30;99.90;;;;;;4931859;28;20431;-55
2022/02/04 04:00:46;;;;;;;45.70;34.50;;;7.30;99.90;;;;;;4963734;28;20055;-63
2022/02/04 04:03:12;;;;;;;43.70;34.25;;;7.30;99.90;;;;;;4964991;28;20047;-53
2022/02/04 04:05:44;;;;;;;44.65;31.88;;;7.40;99.90;;;;;;4944781;28;20093;-63
2022/02/04 04:08:11;;;;;;;45.70;34.65;;;7.40;99.90;;;;;;4962450;28;20279;-63
2022/02/04 04:10:40;;;;;;;46.53;34.88;;;7.40;99.90;;;;;;4952119;28;20478;-63
2022/02/04 04:13:07;;;;;;;41.70;31.33;;;7.30;99.90;;;;;;4992322;28;20588;-62
2022/02/04 04:15:33;;;;;;;40.97;32.33;;;7.40;99.90;;;;;;4964819;28;20043;-63
2022/02/04 04:17:59;;;;;;;46.75;32.80;;;7.40;99.90;;;;;;4963520;28;20193;-62
2022/02/04 04:20:27;;;;;;;43.92;32.85;;;7.40;99.90;;;;;;4963692;28;20046;-62
2022/02/04 04:22:54;;;;;;;43.00;33.17;;;7.30;99.90;;;;;;4959649;28;20047;-63
2022/02/04 04:25:21;;;;;;;42.80;32.78;;;7.40;99.90;;;;;;4960353;28;20047;-53
2022/02/04 04:27:48;;;;;;;41.70;33.33;;;7.40;99.90;;;;;;4948352;28;20055;-51
2022/02/04 04:30:17;;;;;;;42.72;31.92;;;7.40;99.90;;;;;;4963937;28;20047;-51
2022/02/04 04:32:45;;;;;;;41.42;30.92;;;7.40;99.90;;;;;;4946175;28;20053;-53
2022/02/04 04:35:13;;;;;;;42.20;31.33;;;7.40;99.90;;;;;;4951440;28;20053;-54
2022/02/04 04:37:51;;;;;;;42.53;32.00;;;7.40;99.90;;;;;;4952801;28;20061;-53
2022/02/04 04:40:33;;;;;;;39.97;32.38;;;7.40;99.90;;;;;;4945114;28;20042;-54
2022/02/04 05:29:16;;;;;;;39.72;33.42;;;7.60;99.90;;;;;;4961760;28;20154;-51
2022/02/04 05:31:42;;;;;;;35.60;31.17;;;7.70;99.90;;;;;;4966648;28;20118;-54
2022/02/04 05:34:09;;;;;;;35.38;31.50;;;7.60;99.90;;;;;;4960914;28;20050;-54
2022/02/04 05:36:40;;;;;;;36.30;30.15;;;7.60;99.90;;;;;;4962825;28;20572;-53
2022/02/04 05:39:07;;;;;;;36.23;31.10;;;7.60;99.90;;;;;;4969336;28;20055;-63
2022/02/04 05:41:38;;;;;;;34.17;29.00;;;7.60;99.90;;;;;;5035512;28;21000;-63
2022/02/04 05:44:09;;;;;;;35.35;30.25;;;7.70;99.90;;;;;;4968027;28;20082;-53
2022/02/04 05:46:46;;;;;;;34.25;28.52;;;7.70;99.90;;;;;;4947149;28;20505;-54
2022/02/04 05:49:15;;;;;;;36.67;29.20;;;7.70;99.90;;;;;;4964664;28;20089;-54
2022/02/04 05:54:41;;;;;;;31.20;27.40;;;7.70;99.90;;;;;;4960785;28;20043;-52
2022/02/04 05:57:15;;;;;;;31.58;28.05;;;7.70;99.90;;;;;;4955310;28;20051;-54
2022/02/04 06:02:27;;;;;;;29.77;26.42;;;7.70;99.90;;;;;;4948471;28;20174;-62
2022/02/04 06:05:10;;;;;;;29.67;26.20;;;7.70;99.90;;;;;;4944553;28;20054;-53
2022/02/04 06:08:20;;;;;;;30.02;25.27;;;7.70;99.90;;;;;;5006529;28;20104;-54
2022/02/04 06:11:09;;;;;;;30.83;26.45;;;7.70;99.90;;;;;;4963303;28;20305;-53
2022/02/04 06:14:04;;;;;;;28.27;25.20;;;7.80;99.90;;;;;;4958923;28;20450;-62
2022/02/04 06:24:35;;;;;;;29.55;26.35;;;7.70;99.90;;;;;;4988505;28;20047;-51
2022/02/04 06:27:01;;;;;;;29.17;24.90;;;7.70;99.90;;;;;;4962916;28;20054;-53
2022/02/04 06:29:27;;;;;;;30.17;25.05;;;7.70;99.90;;;;;;4972491;28;20044;-52
2022/02/04 06:31:53;;;;;;;28.98;25.83;;;7.70;99.90;;;;;;4963686;28;20051;-63
2022/02/04 06:34:20;;;;;;;29.65;25.88;;;7.70;99.90;;;;;;5004615;28;20054;-63
2022/02/04 06:36:46;;;;;;;26.92;23.75;;;7.70;99.90;;;;;;4966318;28;20051;-63
2022/02/04 06:39:12;;;;;;;29.50;26.33;;;7.70;99.90;;;;;;4947136;28;20305;-63
2022/02/04 06:41:39;;;;;;;28.55;25.50;;;7.70;99.90;;;;;;4946826;28;20050;-53
2022/02/04 06:44:06;;;;;;;34.20;26.85;;;7.70;99.90;;;;;;4965611;28;20510;-62
2022/02/04 06:46:32;;;;;;;30.33;25.17;;;7.70;99.90;;;;;;4986296;28;20050;-63
2022/02/04 06:48:58;;;;;;;27.98;23.73;;;7.70;99.90;;;;;;4952653;28;20074;-63
2022/02/04 06:51:24;;;;;;;27.42;24.13;;;7.70;99.90;;;;;;4959868;28;20046;-63
2022/02/04 06:53:50;;;;;;;30.33;23.95;;;7.70;99.90;;;;;;4979413;28;20047;-54
2022/02/04 06:56:16;;;;;;;25.88;22.42;;;7.70;99.90;;;;;;4985460;28;20764;-53
2022/02/04 06:58:43;;;;;;;25.58;22.83;;;7.70;99.90;;;;;;5041845;28;20052;-53
2022/02/04 07:01:09;;;;;;;26.13;23.23;;;7.70;99.90;;;;;;5040534;28;20091;-53
2022/02/04 07:03:35;;;;;;;27.13;22.63;;;7.70;99.90;;;;;;5058590;28;20476;-63
2022/02/04 07:06:03;;;;;;;26.00;20.70;;;7.80;99.90;;;;;;5006874;28;20132;-54
2022/02/04 07:08:38;;;;;;;22.50;18.85;;;7.70;99.90;;;;;;4993291;28;20055;-51
2022/02/04 07:21:25;;;;;;;21.48;19.25;;;7.80;99.90;;;;;;4977509;28;20420;-64
2022/02/04 07:23:51;;;;;;;21.83;18.38;;;7.90;99.90;;;;;;4947295;28;20410;-53
2022/02/04 07:26:17;;;;;;;22.25;18.65;;;7.80;99.90;;;;;;4943701;28;20046;-50
2022/02/04 07:28:43;;;;;;;21.08;18.77;;;7.80;99.90;;;;;;4963069;28;20494;-53
2022/02/04 07:31:12;;;;;;;22.98;18.15;;;7.80;99.90;;;;;;5020862;28;20055;-54
2022/02/04 07:33:45;;;;;;;19.42;17.52;;;7.80;99.90;;;;;;4998250;28;20036;-53
2022/02/04 07:40:51;;;;;;;19.50;17.52;;;7.80;99.90;;;;;;4966753;28;20670;-50
2022/02/04 07:41:34;;;;;;;18.80;16.83;;;7.80;99.90;;;;;;4977926;28;20048;-62
2022/02/04 07:44:00;;;;;;;17.35;15.60;;;7.80;99.90;;;;;;4955688;28;20204;-63
2022/02/04 07:46:26;;;;;;;19.33;16.55;;;7.80;99.90;;;;;;4948746;28;20077;-62
2022/02/04 07:48:52;;;;;;;19.80;16.27;;;7.90;99.90;;;;;;4966326;28;20052;-53
2022/02/04 07:51:18;;;;;;;19.27;15.60;;;7.90;99.90;;;;;;4980147;28;20558;-46
2022/02/04 07:53:45;;;;;;;18.13;15.05;;;7.90;99.90;;;;;;5006216;28;20544;-51
2022/02/04 07:56:11;;;;;;;18.52;16.48;;;7.90;99.90;;;;;;4971678;28;20734;-53
2022/02/04 07:58:37;;;;;;;19.25;15.18;;;7.90;99.90;;;;;;4968585;28;20180;-52
2022/02/04 08:01:03;;;;;;;18.33;15.52;;;7.90;99.90;;;;;;4969470;28;20375;-52
2022/02/04 08:03:39;;;;;;;16.95;15.10;;;7.80;99.90;;;;;;4950141;28;20108;-52
2022/02/04 08:06:16;;;;;;;19.77;15.52;;;7.90;99.90;;;;;;4960301;28;20103;-55
2022/02/04 08:11:39;;;;;;;17.88;15.57;;;7.90;99.90;;;;;;4968217;28;20424;-51
2022/02/04 08:20:26;;;;;;;17.10;14.15;;;7.90;99.90;;;;;;4955579;28;20047;-63
2022/02/04 08:23:04;;;;;;;14.00;12.57;;;7.90;99.90;;;;;;4945313;28;20051;-52
2022/02/04 08:38:42;;;;;;;14.23;11.95;;;8.00;99.90;;;;;;5030723;28;20122;-51
2022/02/04 08:54:36;;;;;;;14.32;11.82;;;8.20;99.90;;;;;;5030151;28;20043;-63
2022/02/04 08:57:07;;;;;;;16.15;12.27;;;8.20;99.90;;;;;;5007800;28;20098;-50
2022/02/04 09:04:39;;;;;;;16.08;11.82;;;8.30;99.90;;;;;;4993199;28;20054;-54
2022/02/04 09:07:09;;;;;;;13.60;11.95;;;8.20;99.90;;;;;;5016947;28;20533;-52
2022/02/04 09:22:58;;;;;;;14.70;13.20;;;8.30;99.90;;;;;;4961755;28;20047;-52
2022/02/04 09:25:25;;;;;;;14.95;13.35;;;8.40;99.90;;;;;;4973903;28;20039;-54
2022/02/04 09:27:52;;;;;;;16.05;14.40;;;8.40;99.90;;;;;;4944062;28;20186;-52
2022/02/04 09:30:19;;;;;;;14.88;13.23;;;8.40;99.90;;;;;;4963986;28;20133;-62
2022/02/04 09:32:46;;;;;;;14.57;12.95;;;8.50;99.90;;;;;;4963436;28;20192;-63
2022/02/04 09:35:23;;;;;;;14.88;13.38;;;8.50;99.90;;;;;;4956882;28;20051;-52
2022/02/04 09:37:54;;;;;;;15.15;13.52;;;8.50;99.90;;;;;;4950445;28;20055;-50
2022/02/04 09:40:22;;;;;;;15.23;13.75;;;8.50;99.90;;;;;;4962385;28;20149;-51
2022/02/04 09:42:50;;;;;;;15.45;13.88;;;8.50;99.90;;;;;;4970227;28;20093;-51
2022/02/04 09:45:19;;;;;;;17.35;14.75;;;8.50;99.90;;;;;;4956982;28;20157;-53
2022/02/04 09:47:55;;;;;;;16.48;14.88;;;8.50;99.90;;;;;;4928272;28;20047;-52
2022/02/04 09:50:24;;;;;;;15.40;13.90;;;8.60;99.90;;;;;;4982497;28;20060;-53
2022/02/04 10:15:46;;;;;;;16.55;14.98;;;8.90;99.90;;;;;;4954023;28;20312;-63
2022/02/04 10:18:46;;;;;;;17.33;15.77;;;8.90;99.90;;;;;;4940055;28;20087;-61
2022/02/04 10:21:05;;;;;;;16.65;14.82;;;9.00;99.90;;;;;;4942615;28;20047;-64
2022/02/04 10:23:47;;;;;;;16.95;15.23;;;9.10;99.90;;;;;;4945924;28;20587;-63
2022/02/04 10:26:13;;;;;;;15.68;14.18;;;9.10;99.90;;;;;;4985371;28;20043;-64
2022/02/04 10:28:41;;;;;;;16.38;14.95;;;9.20;99.90;;;;;;4946475;28;20426;-64
2022/02/04 10:31:14;;;;;;;15.52;14.02;;;9.20;99.90;;;;;;5025859;28;20070;-64
2022/02/04 10:36:58;;;;;;;15.98;14.38;;;9.40;99.90;;;;;;4959686;28;20410;-64
2022/02/04 10:45:33;;;;;;;15.15;13.63;;;9.60;99.90;;;;;;4943771;28;20418;-63
2022/02/04 10:48:24;;;;;;;14.20;12.93;;;9.60;99.90;;;;;;4953664;28;20051;-63
2022/02/04 10:56:25;;;;;;;13.27;11.68;;;9.90;99.90;;;;;;5004161;28;20065;-63
2022/02/04 11:04:34;;;;;;;12.25;11.07;;;9.60;99.90;;;;;;4943170;28;20051;-50
2022/02/04 11:10:05;;;;;;;11.45;10.15;;;9.50;99.90;;;;;;4962249;28;20075;-50
2022/02/04 11:35:04;;;;;;;7.75;6.68;;;9.80;99.90;;;;;;4949613;28;20099;-51
2022/02/04 11:52:29;;;;;;;8.25;5.95;;;10.30;99.90;;;;;;4952743;28;20136;-47
2022/02/04 11:54:53;;;;;;;6.38;5.78;;;10.40;99.90;;;;;;4947273;28;20321;-48
2022/02/04 11:57:28;;;;;;;9.07;5.68;;;10.40;99.90;;;;;;4946814;28;20061;-48
2022/02/04 11:59:58;;;;;;;6.13;5.53;;;10.30;99.90;;;;;;4958973;28;20051;-49
2022/02/04 12:02:24;;;;;;;7.68;5.28;;;10.20;99.90;;;;;;4977854;28;20050;-53
2022/02/04 12:05:19;;;;;;;6.78;4.97;;;10.20;99.90;;;;;;4996094;28;20134;-49
2022/02/04 12:07:50;;;;;;;9.07;5.22;;;10.30;99.90;;;;;;4963558;28;20549;-50
2022/02/04 12:10:16;;;;;;;7.45;5.72;;;10.20;99.90;;;;;;4963102;28;20126;-48
2022/02/04 12:12:54;;;;;;;6.68;5.07;;;10.20;99.90;;;;;;4964786;28;20108;-56
2022/02/04 12:15:32;;;;;;;8.10;4.70;;;10.00;99.90;;;;;;4964151;28;20083;-52
2022/02/04 12:18:02;;;;;;;7.32;5.28;;;10.00;99.90;;;;;;4953535;28;20410;-53
2022/02/04 12:20:47;;;;;;;5.70;4.63;;;10.10;99.90;;;;;;4964695;28;20506;-51
2022/02/04 12:26:09;;;;;;;7.45;4.80;;;10.10;99.90;;;;;;4954702;28;20063;-48
2022/02/04 12:29:01;;;;;;;5.60;4.82;;;10.00;99.90;;;;;;4952984;28;20585;-48
2022/02/04 12:31:39;;;;;;;5.85;5.18;;;9.90;99.90;;;;;;4965981;28;20046;-50
2022/02/04 12:34:11;;;;;;;6.65;3.97;;;9.80;99.90;;;;;;4964236;28;20055;-48
2022/02/04 12:36:41;;;;;;;7.80;4.00;;;9.80;99.90;;;;;;4945172;28;20153;-50
2022/02/04 12:39:12;;;;;;;5.10;3.65;;;9.70;99.90;;;;;;4954761;28;20502;-50
2022/02/04 12:41:47;;;;;;;6.35;4.25;;;9.70;99.90;;;;;;4995654;28;20120;-48
2022/02/04 12:44:15;;;;;;;9.15;3.80;;;9.80;99.90;;;;;;5005023;28;20108;-63
2022/02/04 12:46:44;;;;;;;5.38;3.92;;;9.70;99.90;;;;;;5031906;28;20046;-64
2022/02/04 12:49:14;;;;;;;6.07;3.75;;;9.70;99.90;;;;;;5004800;28;20049;-63
2022/02/04 12:52:10;;;;;;;5.93;3.88;;;9.70;99.90;;;;;;5030674;28;20055;-63
2022/02/04 12:54:51;;;;;;;5.15;4.03;;;9.70;99.90;;;;;;4997567;28;20115;-48
2022/02/04 13:11:01;;;;;;;5.38;4.70;;;9.40;99.90;;;;;;4972663;28;20050;-51
2022/02/04 13:13:35;;;;;;;10.15;5.00;;;9.30;99.90;;;;;;4947444;28;20514;-51
2022/02/04 13:16:01;;;;;;;7.90;5.35;;;9.20;99.90;;;;;;4949294;28;20046;-48
2022/02/04 13:18:27;;;;;;;8.48;6.50;;;9.00;99.90;;;;;;4969416;28;20052;-49
2022/02/04 13:20:57;;;;;;;9.25;6.60;;;8.70;99.90;;;;;;5063906;28;20045;-50
2022/02/04 13:23:27;;;;;;;10.43;8.00;;;8.40;99.90;;;;;;5045166;28;20050;-51
2022/02/04 13:25:58;;;;;;;9.43;8.27;;;8.20;99.90;;;;;;4958551;28;20050;-51
2022/02/04 13:28:32;;;;;;;10.15;9.05;;;8.10;99.90;;;;;;4990659;28;20074;-49
2022/02/04 13:31:03;;;;;;;12.18;8.80;;;8.00;99.90;;;;;;4952969;28;20043;-49
2022/02/04 13:33:42;;;;;;;14.73;9.53;;;7.90;99.90;;;;;;4957610;28;20118;-50
2022/02/04 13:44:00;;;;;;;11.90;10.55;;;7.70;99.90;;;;;;4961229;28;20063;-50
2022/02/04 13:46:59;;;;;;;13.50;12.05;;;7.60;99.90;;;;;;4999702;28;20052;-49
2022/02/04 13:52:06;;;;;;;13.88;12.02;;;7.60;99.90;;;;;;4942355;28;20081;-61
2022/02/04 13:57:26;;;;;;;12.90;11.65;;;7.50;99.90;;;;;;4972709;28;20042;-61
2022/02/04 14:00:01;;;;;;;;;;;7.50;99.90;;;;;;4986015;28;20059;-60
2022/02/04 14:02:36;;;;;;;14.02;12.18;;;7.50;99.90;;;;;;4963997;28;20001;-61
2022/02/04 14:05:03;;;;;;;16.02;12.93;;;7.50;99.90;;;;;;4971642;28;20078;-61
2022/02/04 14:07:51;;;;;;;14.40;12.98;;;7.50;99.90;;;;;;5003411;28;20615;-61
2022/02/04 14:10:35;;;;;;;15.57;13.35;;;7.50;99.90;;;;;;4972696;28;20054;-61
2022/02/04 14:13:04;;;;;;;12.73;11.43;;;7.40;99.90;;;;;;4967094;28;20074;-52
2022/02/04 14:15:31;;;;;;;16.70;12.63;;;7.40;99.90;;;;;;4959083;28;20564;-61
2022/02/04 14:18:03;;;;;;;10.75;8.18;;;7.40;99.90;;;;;;4972002;28;20135;-61
2022/02/04 14:20:30;;;;;;;2.80;0.90;;;7.30;99.90;;;;;;4958167;28;20434;-61
2022/02/04 14:22:56;;;;;;;3.63;1.40;;;6.30;99.90;;;;;;4973372;28;20525;-61
2022/02/04 14:25:22;;;;;;;9.13;4.60;;;5.90;99.90;;;;;;4970701;28;20044;-62
2022/02/04 14:27:53;;;;;;;4.03;1.33;;;5.60;99.90;;;;;;4960831;28;20414;-61
2022/02/04 14:30:24;;;;;;;3.90;1.35;;;5.10;99.90;;;;;;4943460;28;20158;-62
2022/02/04 14:33:01;;;;;;;9.23;5.15;;;4.70;99.90;;;;;;5013535;28;20414;-60
2022/02/04 14:36:16;;;;;;;8.63;4.78;;;4.50;99.90;;;;;;4967516;28;20145;-61
2022/02/04 15:00:35;;;;;;;2.58;1.77;;;3.70;99.90;;;;;;4953597;28;20442;-61
2022/02/04 15:03:16;;;;;;;3.97;2.38;;;3.70;99.90;;;;;;4961781;28;20122;-60
2022/02/04 15:05:46;;;;;;;2.97;1.55;;;3.60;99.90;;;;;;4973184;28;20047;-60
2022/02/04 15:08:17;;;;;;;2.03;1.35;;;3.60;99.90;;;;;;4961889;28;20047;-60
2022/02/04 15:10:46;;;;;;;1.17;1.00;;;3.50;99.90;;;;;;4986021;28;20050;-60
2022/02/04 15:13:15;;;;;;;1.40;1.20;;;3.40;99.90;;;;;;4961758;28;20072;-61
2022/02/04 15:15:42;;;;;;;1.67;1.20;;;3.40;99.90;;;;;;4941776;28;20520;-60
2022/02/04 15:18:09;;;;;;;3.25;1.98;;;3.40;99.90;;;;;;5004316;28;20398;-61
2022/02/04 15:20:36;;;;;;;1.45;1.20;;;3.30;99.90;;;;;;4975688;28;20455;-60
2022/02/04 15:23:02;;;;;;;1.95;1.00;;;3.30;99.90;;;;;;4949903;28;20290;-60
2022/02/04 15:25:28;;;;;;;2.50;1.35;;;3.20;99.90;;;;;;4977195;28;20138;-60
2022/02/04 15:30:27;;;;;;;1.20;1.02;;;3.20;99.90;;;;;;4944971;28;20047;-60
2022/02/04 15:32:55;;;;;;;2.42;1.75;;;3.20;99.90;;;;;;4953879;28;20376;-60
2022/02/04 15:35:21;;;;;;;3.05;2.50;;;3.20;99.90;;;;;;5001742;28;20043;-61
2022/02/04 15:37:47;;;;;;;4.53;4.13;;;3.30;99.90;;;;;;4963958;28;20051;-59
2022/02/04 15:40:14;;;;;;;3.03;2.28;;;3.20;99.90;;;;;;4967787;28;20406;-60
2022/02/04 15:42:44;;;;;;;2.40;2.17;;;3.30;99.90;;;;;;4967913;28;20055;-59
2022/02/04 15:45:59;;;;;;;2.63;2.10;;;3.30;99.90;;;;;;4985428;28;20109;-59
2022/02/04 15:50:44;;;;;;;2.10;1.90;;;3.30;99.90;;;;;;4983485;28;20051;-60
2022/02/04 15:56:07;;;;;;;1.25;1.15;;;3.30;99.90;;;;;;4941524;28;20058;-60
2022/02/04 16:03:41;;;;;;;2.95;1.70;;;3.30;99.90;;;;;;4968436;28;20047;-59
2022/02/04 16:06:11;;;;;;;3.40;1.50;;;3.20;99.90;;;;;;4958946;28;20047;-59
2022/02/04 16:08:37;;;;;;;2.50;1.30;;;3.20;99.90;;;;;;4985110;28;20081;-59
2022/02/04 16:11:52;;;;;;;2.80;1.40;;;3.20;99.90;;;;;;5004941;28;20044;-59
2022/02/04 16:14:06;;;;;;;2.20;1.58;;;3.30;99.90;;;;;;5021113;28;20044;-60
2022/02/04 16:16:38;;;;;;;3.35;1.70;;;3.30;99.90;;;;;;4972638;28;20054;-59
2022/02/04 16:19:09;;;;;;;2.28;1.65;;;3.30;99.90;;;;;;4962854;28;20308;-59
2022/02/04 16:24:42;;;;;;;4.68;1.90;;;3.30;99.90;;;;;;4960597;28;20486;-59
2022/02/04 16:26:56;;;;;;;2.55;1.65;;;3.30;99.90;;;;;;4962950;28;20140;-59
2022/02/04 16:29:22;;;;;;;3.95;1.40;;;3.30;99.90;;;;;;4968390;28;20109;-59
2022/02/04 16:31:49;;;;;;;4.80;1.90;;;3.30;99.90;;;;;;4961874;28;20478;-59
2022/02/04 16:34:16;;;;;;;4.32;1.75;;;3.30;99.90;;;;;;4960148;28;20469;-59
2022/02/04 16:36:45;;;;;;;2.85;1.20;;;3.30;99.90;;;;;;4945813;28;20612;-51
2022/02/04 16:39:13;;;;;;;2.25;1.42;;;3.30;99.90;;;;;;4956172;28;20620;-52
2022/02/04 16:44:35;;;;;;;3.15;1.63;;;3.40;99.90;;;;;;4975272;28;20054;-49
2022/02/04 16:47:02;;;;;;;5.15;1.35;;;3.40;99.90;;;;;;4973178;28;20116;-53
2022/02/04 16:49:28;;;;;;;5.93;1.35;;;3.40;99.90;;;;;;4992373;28;20099;-59
2022/02/04 16:51:55;;;;;;;6.43;1.15;;;3.50;99.90;;;;;;4978554;28;20830;-60
2022/02/04 16:54:27;;;;;;;5.03;1.42;;;3.50;99.90;;;;;;4970915;28;20125;-61
2022/02/04 16:56:54;;;;;;;;;;;3.50;99.90;;;;;;4965595;28;20125;-60
2022/02/04 16:59:21;;;;;;;6.72;1.27;;;3.50;99.90;;;;;;4974469;28;20373;-60
2022/02/04 17:01:47;;;;;;;2.00;0.80;;;3.50;99.90;;;;;;4968551;28;20055;-61
2022/02/04 17:04:15;;;;;;;4.30;1.30;;;3.50;99.90;;;;;;4958937;28;20043;-47
2022/02/04 17:06:45;;;;;;;6.65;1.20;;;3.60;99.90;;;;;;4939143;28;20065;-51
2022/02/04 17:11:44;;;;;;;3.60;0.77;;;3.60;99.90;;;;;;4968576;28;20124;-59
2022/02/04 17:14:11;;;;;;;7.13;1.42;;;3.60;99.90;;;;;;4956096;28;20538;-59
2022/02/04 17:16:42;;;;;;;7.57;1.42;;;3.60;99.90;;;;;;4962176;28;20442;-59
2022/02/04 17:19:20;;;;;;;8.65;1.38;;;3.60;99.90;;;;;;4957234;28;20418;-60
2022/02/04 17:21:49;;;;;;;5.28;1.05;;;3.60;99.90;;;;;;4955909;28;20411;-60
2022/02/04 17:24:16;;;;;;;1.80;0.82;;;3.60;99.90;;;;;;4959002;28;20417;-60
2022/02/04 17:26:43;;;;;;;3.45;1.17;;;3.70;99.90;;;;;;4954294;28;20051;-59
2022/02/04 17:29:10;;;;;;;6.25;1.48;;;3.60;99.90;;;;;;4965664;28;20122;-61
2022/02/04 17:31:38;;;;;;;8.55;1.70;;;3.60;99.90;;;;;;4952142;28;20081;-60
2022/02/04 17:34:06;;;;;;;7.15;1.27;;;3.60;99.90;;;;;;4945992;28;20449;-60
2022/02/04 17:36:37;;;;;;;3.17;1.00;;;3.60;99.90;;;;;;4958762;28;20047;-60
2022/02/04 17:39:23;;;;;;;3.92;1.45;;;3.50;99.90;;;;;;4981991;28;20047;-61
2022/02/04 17:41:52;;;;;;;1.33;0.75;;;3.50;99.90;;;;;;4964605;28;20552;-60
2022/02/04 17:44:19;;;;;;;1.60;0.93;;;3.30;99.90;;;;;;4957371;28;20553;-60
2022/02/04 17:46:47;;;;;;;1.48;0.68;;;3.10;99.90;;;;;;4953481;28;20523;-60
2022/02/04 17:49:28;;;;;;;2.83;1.00;;;3.00;99.90;;;;;;4926505;28;20047;-60
2022/02/04 17:52:00;;;;;;;3.63;0.70;;;3.00;99.90;;;;;;4958854;28;20102;-60
2022/02/04 17:54:37;;;;;;;5.47;0.80;;;3.00;99.90;;;;;;4960693;28;20046;-60
2022/02/04 17:57:13;;;;;;;2.75;0.80;;;3.00;99.90;;;;;;4950899;28;20528;-60
2022/02/04 18:00:08;;;;;;;3.95;1.13;;;2.90;99.90;;;;;;4951917;28;20055;-60
2022/02/04 18:02:56;;;;;;;6.47;1.50;;;3.00;99.90;;;;;;4961856;28;20513;-59
2022/02/04 18:08:08;;;;;;;3.72;1.10;;;3.00;99.90;;;;;;4965000;28;20055;-60
2022/02/04 18:10:34;;;;;;;6.70;1.48;;;3.00;99.90;;;;;;4952146;28;20055;-61
2022/02/04 18:13:01;;;;;;;5.50;1.45;;;3.00;99.90;;;;;;4955553;28;20125;-60
2022/02/04 18:15:28;;;;;;;7.28;1.77;;;3.10;99.90;;;;;;4961398;28;20040;-60
2022/02/04 18:17:54;;;;;;;6.25;1.20;;;3.10;99.90;;;;;;4958770;28;20370;-47
2022/02/04 18:20:21;;;;;;;6.72;2.67;;;3.10;99.90;;;;;;4978097;28;20208;-50
2022/02/04 18:22:49;;;;;;;8.30;1.60;;;3.10;99.90;;;;;;4952334;28;20153;-54
2022/02/04 18:25:18;;;;;;;5.70;1.55;;;3.10;99.90;;;;;;4939912;28;20117;-50
2022/02/04 18:27:47;;;;;;;5.85;2.10;;;3.10;99.90;;;;;;4966284;28;20042;-49
2022/02/04 18:30:16;;;;;;;7.25;1.90;;;3.00;99.90;;;;;;4954533;28;20050;-50
2022/02/04 18:32:46;;;;;;;4.82;1.75;;;3.00;99.90;;;;;;4979205;28;20047;-48
2022/02/04 18:35:15;;;;;;;9.73;2.45;;;3.10;99.90;;;;;;4955322;28;20054;-50
2022/02/04 18:37:46;;;;;;;19.67;3.00;;;3.10;99.90;;;;;;4961326;28;20050;-51
2022/02/04 18:45:23;;;;;;;11.13;3.42;;;3.30;99.90;;;;;;4965969;28;20051;-49
2022/02/04 18:56:11;;;;;;;15.35;3.28;;;3.30;99.90;;;;;;5017101;28;20073;-49
2022/02/04 18:58:37;;;;;;;15.93;3.70;;;3.30;99.90;;;;;;4972294;28;20047;-53
2022/02/04 19:01:04;;;;;;;19.52;3.55;;;3.30;99.90;;;;;;4958282;28;20960;-51
2022/02/04 19:03:39;;;;;;;17.73;3.42;;;3.20;99.90;;;;;;4953893;28;20632;-50
2022/02/04 19:08:49;;;;;;;13.55;3.47;;;3.20;99.90;;;;;;4970363;28;20051;-52
2022/02/04 19:11:19;;;;;;;14.27;4.38;;;3.20;99.90;;;;;;4963304;28;20058;-61
2022/02/04 19:13:59;;;;;;;14.48;3.78;;;3.20;99.90;;;;;;4954569;28;20100;-61
2022/02/04 19:16:50;;;;;;;16.77;4.35;;;3.30;99.90;;;;;;4957797;28;20053;-61
2022/02/04 19:19:47;;;;;;;12.77;3.95;;;3.30;99.90;;;;;;4940202;28;20070;-61
2022/02/04 19:24:33;;;;;;;17.08;4.25;;;3.50;99.90;;;;;;4958466;28;20057;-60
2022/02/04 19:26:59;;;;;;;16.13;4.22;;;3.60;99.90;;;;;;4955713;28;20038;-60
2022/02/04 19:29:26;;;;;;;20.45;4.50;;;3.60;99.90;;;;;;4953457;28;20151;-61
2022/02/04 19:31:56;;;;;;;14.45;3.75;;;3.70;99.90;;;;;;4951406;28;20162;-59
2022/02/04 19:34:24;;;;;;;18.13;3.67;;;3.70;99.90;;;;;;4981092;28;20599;-52
2022/02/04 19:36:55;;;;;;;21.33;4.13;;;3.80;99.90;;;;;;4990407;28;20056;-59
2022/02/04 19:39:22;;;;;;;16.48;4.03;;;3.70;99.90;;;;;;4999199;28;20087;-57
2022/02/04 19:42:19;;;;;;;17.08;4.40;;;3.70;99.90;;;;;;5012021;28;20048;-60
2022/02/04 19:44:41;;;;;;;16.80;4.03;;;3.70;99.90;;;;;;5005911;28;20094;-60
2022/02/04 19:47:12;;;;;;;14.23;2.90;;;3.60;99.90;;;;;;4975614;28;20332;-52
2022/02/04 19:52:58;;;;;;;20.23;2.95;;;3.60;99.90;;;;;;4988183;28;20869;-60
2022/02/04 20:25:16;;;;;;;11.93;3.08;;;3.20;99.90;;;;;;5000463;28;20172;-53
2022/02/04 20:27:43;;;;;;;10.95;3.30;;;3.20;99.90;;;;;;4996276;28;20159;-53